createdAt,value
2019-02-15T00:02:16.072Z,1.26
2019-02-15T00:04:44.036Z,1.29
2019-02-15T00:07:11.145Z,1.32
2019-02-15T00:09:38.727Z,1.26
2019-02-15T00:12:06.203Z,1.18
2019-02-15T00:15:24.319Z,1.14
2019-02-15T00:18:11.348Z,1.12
2019-02-15T00:20:58.407Z,1.15
2019-02-15T00:23:25.618Z,1.17
2019-02-15T00:25:52.732Z,1.29
2019-02-15T00:28:19.907Z,1.26
2019-02-15T00:30:47.099Z,1.24
2019-02-15T00:33:14.596Z,1.18
2019-02-15T00:35:41.830Z,1.20
2019-02-15T00:38:08.953Z,1.12
2019-02-15T00:40:36.815Z,1.16
2019-02-15T00:43:03.970Z,1.13
2019-02-15T00:48:21.808Z,1.10
2019-02-15T00:51:08.822Z,1.09
2019-02-15T00:53:55.905Z,1.12
2019-02-15T00:56:42.909Z,1.10
2019-02-15T00:59:29.559Z,1.06
2019-02-15T01:02:06.580Z,1.00
2019-02-15T01:04:53.467Z,0.98
2019-02-15T01:07:40.191Z,0.98
2019-02-15T01:10:26.987Z,0.92
2019-02-15T01:13:13.846Z,0.89
2019-02-15T01:15:41.669Z,0.80
2019-02-15T01:18:09.446Z,0.73
2019-02-15T01:20:36.982Z,0.69
2019-02-15T01:23:04.208Z,0.70
2019-02-15T01:28:44.548Z,0.67
2019-02-15T01:31:31.238Z,0.63
2019-02-15T01:34:18.183Z,0.65
2019-02-15T01:37:04.844Z,0.57
2019-02-15T01:39:51.667Z,0.58
2019-02-15T01:42:38.361Z,0.55
2019-02-15T01:45:13.280Z,0.48
2019-02-15T01:47:44.154Z,0.42
2019-02-15T01:50:11.742Z,0.40
2019-02-15T01:52:38.913Z,0.48
2019-02-15T01:55:06.138Z,0.48
2019-02-15T01:57:33.259Z,0.49
2019-02-15T02:00:00.646Z,0.40
2019-02-15T02:05:16.978Z,0.34
2019-02-15T02:07:44.461Z,0.28
2019-02-15T02:10:11.582Z,0.23
2019-02-15T02:12:38.995Z,0.18
2019-02-15T02:15:07.384Z,0.21
2019-02-15T02:17:35.112Z,0.23
2019-02-15T02:20:02.720Z,0.21
2019-02-15T02:22:29.827Z,0.21
2019-02-15T02:24:57.205Z,0.32
2019-02-15T02:27:24.355Z,0.23
2019-02-15T02:29:51.777Z,0.25
2019-02-15T02:32:18.876Z,0.17
2019-02-15T02:34:46.532Z,0.15
2019-02-15T02:37:14.053Z,0.16
2019-02-15T02:39:41.132Z,0.22
2019-02-15T02:42:08.330Z,0.20
2019-02-15T02:44:35.711Z,0.23
2019-02-15T02:47:02.825Z,0.19
2019-02-15T02:49:30.010Z,0.19
2019-02-15T02:51:57.876Z,0.16
2019-02-15T02:54:25.052Z,0.19
2019-02-15T02:56:52.529Z,0.21
2019-02-15T02:59:19.643Z,0.24
2019-02-15T03:02:06.276Z,0.22
2019-02-15T03:08:26.186Z,0.17
2019-02-15T03:10:53.298Z,0.11
2019-02-15T03:13:20.409Z,0.18
2019-02-15T03:15:47.597Z,0.13
2019-02-15T03:18:15.141Z,0.07
2019-02-15T03:20:42.233Z,0.08
2019-02-15T03:23:09.439Z,0.05
2019-02-15T03:25:36.574Z,0.04
2019-02-15T03:28:04.164Z,0.06
2019-02-15T03:30:31.346Z,-0.01
2019-02-15T03:32:58.633Z,0.03
2019-02-15T03:35:26.115Z,-0.01
2019-02-15T03:38:13.221Z,-0.03
2019-02-15T03:40:53.148Z,0.04
2019-02-15T03:43:20.381Z,0.02
2019-02-15T03:45:48.152Z,-0.01
2019-02-15T03:48:15.251Z,0.00
2019-02-15T03:50:42.401Z,-0.03
2019-02-15T03:53:09.523Z,-0.04
2019-02-15T03:55:36.740Z,-0.03
2019-02-15T03:58:04.007Z,-0.06
2019-02-15T04:00:31.116Z,-0.10
2019-02-15T04:02:58.891Z,-0.07
2019-02-15T04:05:27.484Z,-0.09
2019-02-15T04:07:54.780Z,-0.10
2019-02-15T04:10:21.898Z,-0.09
2019-02-15T04:12:49.128Z,-0.08
2019-02-15T04:15:16.247Z,-0.07
2019-02-15T04:17:43.646Z,-0.07
2019-02-15T04:20:22.920Z,-0.13
2019-02-15T04:22:49.841Z,-0.09
2019-02-15T04:25:16.578Z,-0.09
2019-02-15T04:27:43.847Z,-0.25
2019-02-15T04:30:10.847Z,-0.25
2019-02-15T04:32:37.588Z,-0.23
2019-02-15T04:35:04.645Z,-0.27
2019-02-15T04:37:31.386Z,-0.30
2019-02-15T04:39:58.681Z,-0.31
2019-02-15T04:42:25.410Z,-0.31
2019-02-15T04:44:52.160Z,-0.32
2019-02-15T04:47:19.033Z,-0.30
2019-02-15T04:49:46.197Z,-0.31
2019-02-15T04:52:13.240Z,-0.31
2019-02-15T04:54:39.880Z,-0.32
2019-02-15T04:57:06.687Z,-0.26
2019-02-15T04:59:33.711Z,-0.27
2019-02-15T05:02:00.847Z,-0.27
2019-02-15T05:04:27.856Z,-0.26
2019-02-15T05:06:54.495Z,-0.28
2019-02-15T05:09:21.137Z,-0.23
2019-02-15T05:11:48.209Z,-0.24
2019-02-15T05:14:34.970Z,-0.26
2019-02-15T05:17:02.135Z,-0.32
2019-02-15T05:19:29.265Z,-0.25
2019-02-15T05:22:08.856Z,-0.30
2019-02-15T05:24:35.952Z,-0.33
2019-02-15T05:27:03.304Z,-0.33
2019-02-15T05:29:31.206Z,-0.36
2019-02-15T05:31:58.660Z,-0.34
2019-02-15T05:34:25.772Z,-0.41
2019-02-15T05:36:52.929Z,-0.46
2019-02-15T05:39:20.093Z,-0.50
2019-02-15T05:41:47.493Z,-0.44
2019-02-15T05:44:16.327Z,-0.42
2019-02-15T05:46:44.415Z,-0.48
2019-02-15T05:49:11.916Z,-0.50
2019-02-15T05:51:39.517Z,-0.49
2019-02-15T05:54:06.899Z,-0.48
2019-02-15T05:56:34.010Z,-0.47
2019-02-15T05:59:01.186Z,-0.40
2019-02-15T06:01:48.151Z,-0.37
2019-02-15T06:04:15.658Z,-0.37
2019-02-15T06:06:42.771Z,-0.36
2019-02-15T06:09:10.267Z,-0.32
2019-02-15T06:11:37.992Z,-0.43
2019-02-15T06:14:05.545Z,-0.46
2019-02-15T06:16:32.669Z,-0.50
2019-02-15T06:19:00.145Z,-0.56
2019-02-15T06:21:27.218Z,-0.48
2019-02-15T06:23:54.407Z,-0.47
2019-02-15T06:26:21.960Z,-0.50
2019-02-15T06:28:49.070Z,-0.52
2019-02-15T06:31:16.573Z,-0.53
2019-02-15T06:33:43.780Z,-0.59
2019-02-15T06:39:22.500Z,-0.51
2019-02-15T06:41:49.574Z,-0.56
2019-02-15T06:44:16.639Z,-0.57
2019-02-15T06:46:43.819Z,-0.56
2019-02-15T06:49:11.305Z,-0.56
2019-02-15T06:51:38.763Z,-0.55
2019-02-15T06:54:06.128Z,-0.50
2019-02-15T06:56:33.282Z,-0.42
2019-02-15T06:59:20.372Z,-0.40
2019-02-15T07:01:54.672Z,-0.39
2019-02-15T07:04:41.190Z,-0.31
2019-02-15T07:07:09.462Z,-0.16
2019-02-15T07:09:36.581Z,-0.12
2019-02-15T07:12:03.797Z,-0.06
2019-02-15T07:14:31.397Z,0.00
2019-02-15T07:16:58.506Z,0.12
2019-02-15T07:19:26.928Z,0.15
2019-02-15T07:21:54.003Z,0.30
2019-02-15T07:24:34.343Z,0.48
2019-02-15T07:27:01.434Z,0.64
2019-02-15T07:29:28.879Z,0.78
2019-02-15T07:32:15.556Z,0.94
2019-02-15T07:34:42.634Z,1.04
2019-02-15T07:37:10.363Z,1.16
2019-02-15T07:39:37.752Z,1.28
2019-02-15T07:42:05.201Z,1.47
2019-02-15T07:44:32.306Z,1.57
2019-02-15T07:47:01.712Z,1.74
2019-02-15T07:49:48.564Z,1.86
2019-02-15T07:52:15.714Z,1.97
2019-02-15T07:54:42.834Z,2.05
2019-02-15T07:57:09.923Z,2.11
2019-02-15T07:59:37.251Z,2.33
2019-02-15T08:02:04.799Z,2.40
2019-02-15T08:04:32.463Z,2.54
2019-02-15T08:06:59.682Z,2.67
2019-02-15T08:09:27.398Z,2.87
2019-02-15T08:11:54.502Z,3.19
2019-02-15T08:14:22.207Z,3.46
2019-02-15T08:16:49.421Z,3.74
2019-02-15T08:19:17.099Z,4.05
2019-02-15T08:21:44.414Z,4.15
2019-02-15T08:24:11.886Z,4.42
2019-02-15T08:26:39.127Z,4.66
2019-02-15T08:29:07.025Z,4.82
2019-02-15T08:31:34.682Z,5.02
2019-02-15T08:34:01.802Z,5.34
2019-02-15T08:36:28.967Z,5.40
2019-02-15T08:38:56.270Z,5.62
2019-02-15T08:41:24.778Z,5.73
2019-02-15T08:43:52.011Z,5.83
2019-02-15T08:46:19.014Z,5.88
2019-02-15T08:48:47.436Z,5.90
2019-02-15T08:51:14.593Z,5.85
2019-02-15T08:53:42.116Z,5.87
2019-02-15T08:56:09.214Z,5.84
2019-02-15T08:58:36.404Z,5.89
2019-02-15T09:01:03.488Z,5.83
2019-02-15T09:03:30.919Z,5.83
2019-02-15T09:05:58.053Z,5.72
2019-02-15T09:08:25.141Z,5.75
2019-02-15T09:10:52.233Z,5.79
2019-02-15T09:13:19.572Z,5.61
2019-02-15T09:15:47.680Z,5.87
2019-02-15T09:18:14.942Z,5.83
2019-02-15T09:20:42.501Z,5.88
2019-02-15T09:23:09.609Z,6.02
2019-02-15T09:25:36.678Z,6.17
2019-02-15T09:30:53.687Z,6.20
2019-02-15T09:33:20.775Z,6.44
2019-02-15T09:35:48.235Z,6.50
2019-02-15T09:38:15.742Z,6.73
2019-02-15T09:40:42.819Z,6.97
2019-02-15T09:43:10.236Z,7.04
2019-02-15T09:45:37.845Z,7.29
2019-02-15T09:48:05.254Z,7.49
2019-02-15T09:50:32.327Z,7.81
2019-02-15T09:53:18.943Z,8.03
2019-02-15T09:55:45.693Z,8.41
2019-02-15T09:58:12.586Z,8.82
2019-02-15T10:00:39.497Z,9.11
2019-02-15T10:03:06.118Z,9.39
2019-02-15T10:05:33.247Z,9.57
2019-02-15T10:07:59.962Z,9.74
2019-02-15T10:10:26.828Z,10.00
2019-02-15T10:12:53.574Z,10.15
2019-02-15T10:15:20.339Z,10.20
2019-02-15T10:17:47.068Z,10.39
2019-02-15T10:20:14.442Z,10.49
2019-02-15T10:22:41.807Z,10.58
2019-02-15T10:25:08.540Z,10.63
2019-02-15T10:27:35.367Z,10.74
2019-02-15T10:30:02.759Z,10.71
2019-02-15T10:32:29.529Z,10.86
2019-02-15T10:34:56.172Z,10.97
2019-02-15T10:37:22.875Z,11.22
2019-02-15T10:39:49.526Z,11.52
2019-02-15T10:42:16.245Z,11.39
2019-02-15T10:44:43.227Z,11.58
2019-02-15T10:47:14.262Z,11.55
2019-02-15T10:49:39.075Z,11.64
2019-02-15T10:52:06.257Z,11.61
2019-02-15T10:54:55.206Z,11.70
2019-02-15T10:57:22.336Z,11.86
2019-02-15T10:59:49.458Z,12.13
2019-02-15T11:02:16.537Z,12.16
2019-02-15T11:04:43.685Z,12.14
2019-02-15T11:07:10.781Z,12.01
2019-02-15T11:09:37.870Z,11.94
2019-02-15T11:12:05.033Z,11.74
2019-02-15T11:14:32.120Z,11.45
2019-02-15T11:16:59.217Z,11.51
2019-02-15T11:19:26.380Z,11.51
2019-02-15T11:21:54.064Z,11.66
2019-02-15T11:24:21.622Z,11.63
2019-02-15T11:26:48.795Z,11.75
2019-02-15T11:29:16.332Z,11.84
2019-02-15T11:31:43.507Z,11.99
2019-02-15T11:34:10.780Z,11.96
2019-02-15T11:36:38.256Z,11.99
2019-02-15T11:39:05.325Z,12.05
2019-02-15T11:41:32.786Z,11.97
2019-02-15T11:44:00.207Z,12.18
2019-02-15T11:46:27.306Z,12.35
2019-02-15T11:48:54.590Z,12.30
2019-02-15T11:51:21.892Z,12.46
2019-02-15T11:53:49.162Z,12.64
2019-02-15T11:56:16.837Z,12.71
2019-02-15T11:58:43.930Z,12.97
2019-02-15T12:01:11.037Z,13.21
2019-02-15T12:03:38.246Z,13.34
2019-02-15T12:06:05.343Z,13.63
2019-02-15T12:08:32.847Z,13.78
2019-02-15T12:11:00.056Z,14.12
2019-02-15T12:13:27.588Z,14.36
2019-02-15T12:16:14.256Z,14.58
2019-02-15T12:18:41.341Z,14.82
2019-02-15T12:21:08.760Z,14.89
2019-02-15T12:23:36.368Z,14.91
2019-02-15T12:26:03.435Z,15.01
2019-02-15T12:28:30.799Z,15.21
2019-02-15T12:30:58.007Z,15.39
2019-02-15T12:33:25.190Z,15.34
2019-02-15T12:35:52.289Z,15.27
2019-02-15T12:38:19.672Z,15.03
2019-02-15T12:40:46.781Z,15.14
2019-02-15T12:43:13.872Z,15.34
2019-02-15T12:45:41.147Z,15.43
2019-02-15T12:48:08.240Z,15.43
2019-02-15T12:50:35.436Z,15.37
2019-02-15T12:53:02.889Z,14.97
2019-02-15T12:55:29.992Z,14.95
2019-02-15T12:57:57.412Z,14.69
2019-02-15T13:00:24.817Z,14.40
2019-02-15T13:02:51.930Z,14.21
2019-02-15T13:05:19.376Z,14.13
2019-02-15T13:07:46.597Z,13.97
2019-02-15T13:13:03.737Z,13.60
2019-02-15T13:15:30.857Z,13.45
2019-02-15T13:17:58.139Z,13.22
2019-02-15T13:20:25.919Z,13.09
2019-02-15T13:22:53.463Z,13.09
2019-02-15T13:25:20.542Z,12.94
2019-02-15T13:27:47.713Z,12.90
2019-02-15T13:30:15.227Z,12.75
2019-02-15T13:32:42.331Z,12.67
2019-02-15T13:35:31.307Z,12.62
2019-02-15T13:37:58.083Z,12.52
2019-02-15T13:40:24.944Z,12.42
2019-02-15T13:42:52.076Z,12.42
2019-02-15T13:45:19.286Z,12.29
2019-02-15T13:47:46.186Z,12.25
2019-02-15T13:50:13.166Z,12.21
2019-02-15T13:52:40.385Z,12.30
2019-02-15T13:55:07.683Z,12.37
2019-02-15T13:57:34.747Z,12.27
2019-02-15T14:00:01.573Z,12.47
2019-02-15T14:02:28.927Z,12.58
2019-02-15T14:04:58.156Z,12.52
2019-02-15T14:07:25.235Z,12.55
2019-02-15T14:09:52.383Z,12.41
2019-02-15T14:12:19.556Z,12.43
2019-02-15T14:14:46.632Z,12.26
2019-02-15T14:17:14.029Z,12.15
2019-02-15T14:19:41.538Z,12.00
2019-02-15T14:22:08.664Z,11.90
2019-02-15T14:24:35.780Z,11.84
2019-02-15T14:27:03.421Z,11.72
2019-02-15T14:29:30.508Z,11.71
2019-02-15T14:31:57.577Z,11.68
2019-02-15T14:34:24.711Z,11.71
2019-02-15T14:36:52.215Z,11.90
2019-02-15T14:39:19.345Z,11.83
2019-02-15T14:41:46.494Z,11.93
2019-02-15T14:44:13.560Z,11.76
2019-02-15T14:46:40.795Z,11.83
2019-02-15T14:49:08.002Z,11.70
2019-02-15T14:51:35.075Z,11.95
2019-02-15T14:54:02.572Z,11.82
2019-02-15T14:56:30.323Z,11.74
2019-02-15T14:59:17.059Z,11.65
2019-02-15T15:02:03.815Z,11.63
2019-02-15T15:04:31.479Z,11.44
2019-02-15T15:06:58.576Z,11.32
2019-02-15T15:09:45.263Z,11.34
2019-02-15T15:12:12.334Z,11.50
2019-02-15T15:14:39.720Z,11.36
2019-02-15T15:17:07.971Z,11.21
2019-02-15T15:19:54.227Z,11.13
2019-02-15T15:22:21.879Z,11.03
2019-02-15T15:24:48.891Z,10.89
2019-02-15T15:27:16.199Z,10.80
2019-02-15T15:29:43.422Z,10.72
2019-02-15T15:32:10.641Z,10.67
2019-02-15T15:34:37.331Z,10.61
2019-02-15T15:37:04.762Z,10.54
2019-02-15T15:39:31.891Z,10.53
2019-02-15T15:41:58.611Z,10.43
2019-02-15T15:44:25.425Z,10.34
2019-02-15T15:46:53.030Z,10.18
2019-02-15T15:49:19.741Z,10.07
2019-02-15T15:51:46.626Z,9.92
2019-02-15T15:54:13.245Z,9.76
2019-02-15T15:56:39.997Z,9.60
2019-02-15T15:59:07.163Z,9.42
2019-02-15T16:01:34.002Z,9.23
2019-02-15T16:04:00.827Z,9.06
2019-02-15T16:06:27.639Z,8.87
2019-02-15T16:08:54.555Z,8.70
2019-02-15T16:11:21.389Z,8.53
2019-02-15T16:13:48.923Z,8.34
2019-02-15T16:16:15.792Z,8.20
2019-02-15T16:18:42.730Z,8.03
2019-02-15T16:21:09.595Z,7.89
2019-02-15T16:23:36.390Z,7.76
2019-02-15T16:26:03.106Z,7.62
2019-02-15T16:28:29.996Z,7.49
2019-02-15T16:30:56.824Z,7.36
2019-02-15T16:33:23.575Z,7.24
2019-02-15T16:35:50.696Z,6.99
2019-02-15T16:38:17.774Z,6.99
2019-02-15T16:40:57.893Z,6.89
2019-02-15T16:43:25.325Z,6.79
2019-02-15T16:46:12.494Z,6.64
2019-02-15T16:48:42.333Z,6.52
2019-02-15T16:51:10.646Z,6.42
2019-02-15T16:53:38.382Z,6.32
2019-02-15T16:56:05.451Z,6.23
2019-02-15T16:58:52.419Z,6.15
2019-02-15T17:01:19.741Z,6.04
2019-02-15T17:03:46.784Z,5.96
2019-02-15T17:06:15.923Z,5.87
2019-02-15T17:08:43.127Z,5.81
2019-02-15T17:11:10.739Z,5.75
2019-02-15T17:13:38.255Z,5.69
2019-02-15T17:16:05.953Z,5.62
2019-02-15T17:18:33.432Z,5.54
2019-02-15T17:21:00.774Z,5.48
2019-02-15T17:23:28.857Z,5.41
2019-02-15T17:25:56.993Z,5.34
2019-02-15T17:28:24.455Z,5.26
2019-02-15T17:30:51.801Z,5.23
2019-02-15T17:33:18.939Z,5.16
2019-02-15T17:35:46.380Z,5.09
2019-02-15T17:38:13.079Z,5.03
2019-02-15T17:40:40.255Z,4.95
2019-02-15T17:43:07.886Z,4.89
2019-02-15T17:45:54.496Z,4.83
2019-02-15T17:48:22.336Z,4.77
2019-02-15T17:50:49.162Z,4.72
2019-02-15T17:53:16.285Z,4.69
2019-02-15T17:58:36.949Z,4.57
2019-02-15T18:01:05.330Z,4.47
2019-02-15T18:03:53.101Z,4.41
2019-02-15T18:06:21.330Z,4.39
2019-02-15T18:08:48.808Z,4.34
2019-02-15T18:11:18.657Z,4.28
2019-02-15T18:13:46.319Z,4.22
2019-02-15T18:16:13.836Z,4.18
2019-02-15T18:19:00.218Z,4.13
2019-02-15T18:21:26.856Z,4.09
2019-02-15T18:23:53.678Z,4.03
2019-02-15T18:26:21.155Z,3.99
2019-02-15T18:28:47.871Z,3.91
2019-02-15T18:31:16.470Z,3.87
2019-02-15T18:34:28.322Z,3.84
2019-02-15T18:36:55.500Z,3.79
2019-02-15T18:39:22.813Z,3.73
2019-02-15T18:41:49.622Z,3.69
2019-02-15T18:44:16.328Z,3.66
2019-02-15T18:46:43.359Z,3.65
2019-02-15T18:49:18.969Z,3.58
2019-02-15T18:55:45.848Z,3.49
2019-02-15T18:58:32.393Z,3.41
2019-02-15T19:00:59.241Z,3.33
2019-02-15T19:03:26.256Z,3.29
2019-02-15T19:05:53.461Z,3.27
2019-02-15T19:08:20.418Z,3.22
2019-02-15T19:10:47.686Z,3.23
2019-02-15T19:13:14.684Z,3.19
2019-02-15T19:15:42.059Z,3.16
2019-02-15T19:18:09.028Z,3.11
2019-02-15T19:20:36.095Z,3.09
2019-02-15T19:23:02.987Z,3.04
2019-02-15T19:25:29.704Z,2.99
2019-02-15T19:27:56.743Z,2.98
2019-02-15T19:30:24.504Z,2.93
2019-02-15T19:32:51.718Z,2.90
2019-02-15T19:35:18.842Z,2.85
2019-02-15T19:37:45.991Z,2.79
2019-02-15T19:40:32.503Z,2.75
2019-02-15T19:42:59.911Z,2.73
2019-02-15T19:45:27.065Z,2.66
2019-02-15T19:47:54.066Z,2.66
2019-02-15T19:50:21.194Z,2.62
2019-02-15T19:52:48.112Z,2.59
2019-02-15T19:55:14.995Z,2.59
2019-02-15T19:57:41.946Z,2.59
2019-02-15T20:00:18.598Z,2.59
2019-02-15T20:02:45.582Z,2.56
2019-02-15T20:05:12.426Z,2.54
2019-02-15T20:07:39.285Z,2.52
2019-02-15T20:10:09.394Z,2.51
2019-02-15T20:12:36.161Z,2.48
2019-02-15T20:15:03.164Z,2.47
2019-02-15T20:17:49.852Z,2.49
2019-02-15T20:20:16.602Z,2.48
2019-02-15T20:22:43.508Z,2.49
2019-02-15T20:25:10.476Z,2.49
2019-02-15T20:27:37.298Z,2.45
2019-02-15T20:30:06.048Z,2.47
2019-02-15T20:32:32.733Z,2.49
2019-02-15T20:34:59.490Z,2.46
2019-02-15T20:37:26.675Z,2.46
2019-02-15T20:39:53.462Z,2.46
2019-02-15T20:42:20.176Z,2.44
2019-02-15T20:44:47.228Z,2.44
2019-02-15T20:47:14.648Z,2.45
2019-02-15T20:49:41.266Z,2.44
2019-02-15T20:52:08.486Z,2.45
2019-02-15T20:54:35.233Z,2.41
2019-02-15T20:57:02.134Z,2.44
2019-02-15T20:59:28.751Z,2.48
2019-02-15T21:01:55.790Z,2.42
2019-02-15T21:04:22.901Z,2.42
2019-02-15T21:06:49.633Z,2.40
2019-02-15T21:09:16.736Z,2.39
2019-02-15T21:11:43.365Z,2.37
2019-02-15T21:14:10.488Z,2.37
2019-02-15T21:16:37.276Z,2.32
2019-02-15T21:19:04.111Z,2.35
2019-02-15T21:21:30.883Z,2.33
2019-02-15T21:23:57.653Z,2.34
2019-02-15T21:26:24.963Z,2.32
2019-02-15T21:28:51.589Z,2.28
2019-02-15T21:31:20.314Z,2.27
2019-02-15T21:33:48.071Z,2.25
2019-02-15T21:36:14.768Z,2.26
2019-02-15T21:38:41.809Z,2.26
2019-02-15T21:41:08.532Z,2.22
2019-02-15T21:43:35.532Z,2.23
2019-02-15T21:46:02.339Z,2.23
2019-02-15T21:48:29.012Z,2.20
2019-02-15T21:50:55.987Z,2.19
2019-02-15T21:53:22.688Z,2.16
2019-02-15T21:55:49.448Z,2.14
2019-02-15T21:58:16.094Z,2.14
2019-02-15T22:00:43.893Z,2.09
2019-02-15T22:03:10.577Z,2.09
2019-02-15T22:05:37.597Z,2.10
2019-02-15T22:08:04.386Z,2.05
2019-02-15T22:10:31.262Z,2.02
2019-02-15T22:12:59.079Z,1.99
2019-02-15T22:16:46.204Z,2.03
2019-02-15T22:19:13.107Z,1.95
2019-02-15T22:21:40.110Z,1.94
2019-02-15T22:24:07.054Z,1.93
2019-02-15T22:26:33.693Z,1.89
2019-02-15T22:29:00.721Z,1.86
2019-02-15T22:31:27.582Z,1.87
2019-02-15T22:33:54.685Z,1.85
2019-02-15T22:36:21.450Z,1.82
2019-02-15T22:38:48.410Z,1.78
2019-02-15T22:41:16.388Z,1.74
2019-02-15T22:43:43.962Z,1.70
2019-02-15T22:46:10.751Z,1.67
2019-02-15T22:48:37.489Z,1.65
2019-02-15T22:51:17.015Z,1.63
2019-02-15T22:53:44.545Z,1.61
2019-02-15T22:56:11.664Z,1.55
2019-02-15T22:58:39.247Z,1.50
2019-02-15T23:01:25.819Z,1.48
2019-02-15T23:03:53.205Z,1.45
2019-02-15T23:06:20.623Z,1.44
2019-02-15T23:08:47.736Z,1.40
2019-02-15T23:11:14.927Z,1.35
2019-02-15T23:13:42.035Z,1.33
2019-02-15T23:16:09.475Z,1.33
2019-02-15T23:18:37.195Z,1.29
2019-02-15T23:21:04.299Z,1.26
2019-02-15T23:23:31.617Z,1.24
2019-02-15T23:25:58.850Z,1.23
2019-02-15T23:28:25.939Z,1.19
2019-02-15T23:30:53.062Z,1.18
2019-02-15T23:33:20.293Z,1.17
2019-02-15T23:35:47.386Z,1.16
2019-02-15T23:38:14.939Z,1.12
2019-02-15T23:40:42.190Z,1.08
2019-02-15T23:43:09.343Z,1.06
2019-02-15T23:45:36.427Z,1.04
2019-02-15T23:48:03.622Z,1.02
2019-02-15T23:50:31.406Z,0.99
2019-02-15T23:52:58.970Z,1.00
2019-02-15T23:55:27.038Z,0.97
2019-02-15T23:57:54.144Z,0.96
